sensor_id;sensor_type;location;lat;lon;timestamp;pressure;altitude;pressure_sealevel;temperature;humidity
12624;BME280;6377;42.836;23.998;2024-02-15T00:12:26;95887.88;;;2.91;100.00
12624;BME280;6377;42.836;23.998;2024-02-15T00:14:53;95895.16;;;3.28;100.00
12624;BME280;6377;42.836;23.998;2024-02-15T00:17:24;96083.06;;;4.46;100.00
12624;BME280;6377;42.836;23.998;2024-02-15T00:24:58;95934.59;;;3.46;100.00
12624;BME280;6377;42.836;23.998;2024-02-15T03:29:54;96031.09;;;3.70;100.00
12624;BME280;6377;42.836;23.998;2024-02-15T03:34:58;95980.50;;;3.60;100.00
12624;BME280;6377;42.836;23.998;2024-02-15T03:37:26;95989.69;;;3.75;100.00
12624;BME280;6377;42.836;23.998;2024-02-15T03:47:41;96093.47;;;4.67;100.00
12624;BME280;6377;42.836;23.998;2024-02-15T03:50:09;95968.81;;;3.84;100.00
12624;BME280;6377;42.836;23.998;2024-02-15T03:52:36;96135.00;;;5.11;100.00
12624;BME280;6377;42.836;23.998;2024-02-15T03:55:05;96022.72;;;4.27;100.00
12624;BME280;6377;42.836;23.998;2024-02-15T03:57:33;96115.94;;;5.09;100.00
12624;BME280;6377;42.836;23.998;2024-02-15T04:02:28;96149.69;;;5.33;100.00
12624;BME280;6377;42.836;23.998;2024-02-15T04:04:57;96085.41;;;4.89;100.00
12624;BME280;6377;42.836;23.998;2024-02-15T04:07:25;96013.94;;;4.37;100.00
12624;BME280;6377;42.836;23.998;2024-02-15T04:09:52;96138.44;;;5.12;100.00
12624;BME280;6377;42.836;23.998;2024-02-15T04:12:18;96087.75;;;4.92;100.00
12624;BME280;6377;42.836;23.998;2024-02-15T04:14:46;96129.91;;;5.09;100.00
12624;BME280;6377;42.836;23.998;2024-02-15T04:17:15;96094.06;;;4.80;100.00
12624;BME280;6377;42.836;23.998;2024-02-15T04:19:44;95942.44;;;3.76;100.00
12624;BME280;6377;42.836;23.998;2024-02-15T04:22:13;96144.25;;;5.15;100.00
12624;BME280;6377;42.836;23.998;2024-02-15T04:24:43;95908.69;;;3.64;100.00
12624;BME280;6377;42.836;23.998;2024-02-15T04:27:11;96115.91;;;4.99;100.00
12624;BME280;6377;42.836;23.998;2024-02-15T04:29:39;96042.41;;;4.61;100.00
12624;BME280;6377;42.836;23.998;2024-02-15T04:32:07;96125.38;;;5.21;100.00
12624;BME280;6377;42.836;23.998;2024-02-15T04:34:35;96031.88;;;4.42;100.00
12624;BME280;6377;42.836;23.998;2024-02-15T04:37:03;95989.94;;;4.32;100.00
12624;BME280;6377;42.836;23.998;2024-02-15T05:44:17;96216.56;;;5.18;100.00
12624;BME280;6377;42.836;23.998;2024-02-15T05:46:46;96062.81;;;4.27;100.00
12624;BME280;6377;42.836;23.998;2024-02-15T05:49:13;96043.78;;;3.95;100.00
12624;BME280;6377;42.836;23.998;2024-02-15T05:54:17;96032.22;;;3.97;100.00
12624;BME280;6377;42.836;23.998;2024-02-15T05:56:45;96083.00;;;4.36;100.00
12624;BME280;6377;42.836;23.998;2024-02-15T05:59:20;96265.66;;;5.36;100.00
12624;BME280;6377;42.836;23.998;2024-02-15T06:01:48;96075.44;;;4.13;100.00
12624;BME280;6377;42.836;23.998;2024-02-15T06:17:05;96253.03;;;5.21;100.00
12624;BME280;6377;42.836;23.998;2024-02-15T07:11:17;96249.97;;;5.55;100.00
12624;BME280;6377;42.836;23.998;2024-02-15T07:13:44;96232.41;;;5.37;100.00
12624;BME280;6377;42.836;23.998;2024-02-15T07:16:12;96228.06;;;5.26;100.00
12624;BME280;6377;42.836;23.998;2024-02-15T07:21:16;96285.19;;;5.53;100.00
12624;BME280;6377;42.836;23.998;2024-02-15T07:23:46;96287.06;;;5.41;100.00
12624;BME280;6377;42.836;23.998;2024-02-15T07:26:14;96215.97;;;5.04;100.00
12624;BME280;6377;42.836;23.998;2024-02-15T07:28:42;96095.03;;;3.97;100.00
12624;BME280;6377;42.836;23.998;2024-02-15T07:31:11;96233.81;;;5.11;100.00
12624;BME280;6377;42.836;23.998;2024-02-15T07:33:40;96226.94;;;5.19;100.00
12624;BME280;6377;42.836;23.998;2024-02-15T07:36:08;96104.31;;;4.32;100.00
12624;BME280;6377;42.836;23.998;2024-02-15T07:38:36;96282.72;;;5.61;100.00
12624;BME280;6377;42.836;23.998;2024-02-15T07:41:03;96110.63;;;4.50;100.00
12624;BME280;6377;42.836;23.998;2024-02-15T07:43:31;96118.97;;;4.65;100.00
12624;BME280;6377;42.836;23.998;2024-02-15T08:14:27;96238.94;;;6.30;84.45
12624;BME280;6377;42.836;23.998;2024-02-15T08:16:54;96191.66;;;6.11;84.70
12624;BME280;6377;42.836;23.998;2024-02-15T08:19:22;96300.75;;;6.72;78.46
12624;BME280;6377;42.836;23.998;2024-02-15T08:21:49;96263.81;;;6.64;78.99
12624;BME280;6377;42.836;23.998;2024-02-15T08:24:17;96290.78;;;6.86;80.05
12624;BME280;6377;42.836;23.998;2024-02-15T08:26:44;96160.72;;;5.95;76.93
12624;BME280;6377;42.836;23.998;2024-02-15T08:29:13;96268.63;;;6.78;77.57
12624;BME280;6377;42.836;23.998;2024-02-15T08:31:42;96210.44;;;6.35;73.43
12624;BME280;6377;42.836;23.998;2024-02-15T08:34:09;96259.38;;;6.74;76.01
12624;BME280;6377;42.836;23.998;2024-02-15T08:36:39;96309.97;;;7.05;70.34
12624;BME280;6377;42.836;23.998;2024-02-15T08:39:07;96203.47;;;6.72;69.93
12624;BME280;6377;42.836;23.998;2024-02-15T08:41:37;96284.44;;;7.34;65.98
12624;BME280;6377;42.836;23.998;2024-02-15T08:44:04;96154.47;;;6.81;68.90
12624;BME280;6377;42.836;23.998;2024-02-15T08:46:37;96251.91;;;7.63;65.69
12624;BME280;6377;42.836;23.998;2024-02-15T08:49:05;96275.84;;;7.97;65.11
12624;BME280;6377;42.836;23.998;2024-02-15T08:51:32;96273.22;;;8.14;64.96
12624;BME280;6377;42.836;23.998;2024-02-15T08:53:59;96244.31;;;8.05;62.72
12624;BME280;6377;42.836;23.998;2024-02-15T08:56:26;96277.00;;;8.12;61.91
12624;BME280;6377;42.836;23.998;2024-02-15T08:58:54;96287.03;;;8.26;63.20
12624;BME280;6377;42.836;23.998;2024-02-15T09:01:23;96277.41;;;8.52;62.17
12624;BME280;6377;42.836;23.998;2024-02-15T09:03:50;96252.06;;;8.51;61.13
12624;BME280;6377;42.836;23.998;2024-02-15T09:06:19;96231.38;;;8.64;60.60
12624;BME280;6377;42.836;23.998;2024-02-15T09:08:48;96212.94;;;8.47;55.99
12624;BME280;6377;42.836;23.998;2024-02-15T09:11:15;96285.00;;;8.90;56.21
12624;BME280;6377;42.836;23.998;2024-02-15T09:13:43;96160.16;;;8.21;56.56
12624;BME280;6377;42.836;23.998;2024-02-15T09:16:10;96116.53;;;8.01;56.71
12624;BME280;6377;42.836;23.998;2024-02-15T09:18:38;96156.69;;;8.20;57.54
12624;BME280;6377;42.836;23.998;2024-02-15T09:21:10;96106.22;;;7.89;57.86
12624;BME280;6377;42.836;23.998;2024-02-15T09:23:39;96150.47;;;8.39;58.00
12624;BME280;6377;42.836;23.998;2024-02-15T09:26:06;96290.69;;;9.47;55.47
12624;BME280;6377;42.836;23.998;2024-02-15T09:28:35;96117.53;;;8.25;53.55
12624;BME280;6377;42.836;23.998;2024-02-15T09:31:03;96247.25;;;8.72;54.75
12624;BME280;6377;42.836;23.998;2024-02-15T09:33:30;96137.13;;;8.05;55.36
12624;BME280;6377;42.836;23.998;2024-02-15T09:35:57;96273.28;;;9.11;55.47
12624;BME280;6377;42.836;23.998;2024-02-15T09:38:25;96260.88;;;9.29;59.01
12624;BME280;6377;42.836;23.998;2024-02-15T09:40:53;96260.69;;;9.56;57.40
12624;BME280;6377;42.836;23.998;2024-02-15T09:43:21;96163.31;;;8.85;53.00
12624;BME280;6377;42.836;23.998;2024-02-15T09:45:52;96250.34;;;9.37;52.63
12624;BME280;6377;42.836;23.998;2024-02-15T09:48:23;96241.41;;;9.30;53.38
12624;BME280;6377;42.836;23.998;2024-02-15T09:50:52;96253.41;;;9.50;51.89
12624;BME280;6377;42.836;23.998;2024-02-15T09:53:21;96258.81;;;9.48;51.36
12624;BME280;6377;42.836;23.998;2024-02-15T09:55:53;96236.59;;;9.59;51.12
12624;BME280;6377;42.836;23.998;2024-02-15T09:58:22;96253.25;;;10.01;50.88
12624;BME280;6377;42.836;23.998;2024-02-15T10:06:00;96011.47;;;8.83;50.95
12624;BME280;6377;42.836;23.998;2024-02-15T10:26:35;96059.31;;;11.14;45.02
12624;BME280;6377;42.836;23.998;2024-02-15T10:29:07;96060.38;;;10.26;45.54
12624;BME280;6377;42.836;23.998;2024-02-15T10:39:21;95995.34;;;10.63;45.96
12624;BME280;6377;42.836;23.998;2024-02-15T10:41:52;96165.69;;;12.26;44.31
12624;BME280;6377;42.836;23.998;2024-02-15T10:44:21;96047.00;;;11.29;44.45
12624;BME280;6377;42.836;23.998;2024-02-15T10:46:51;96068.72;;;11.16;44.07
12624;BME280;6377;42.836;23.998;2024-02-15T10:49:20;95991.56;;;10.97;45.35
12624;BME280;6377;42.836;23.998;2024-02-15T10:51:54;96143.09;;;12.53;43.66
12624;BME280;6377;42.836;23.998;2024-02-15T10:54:46;95956.91;;;11.37;42.91
12624;BME280;6377;42.836;23.998;2024-02-15T10:57:19;96087.44;;;12.07;43.59
12624;BME280;6377;42.836;23.998;2024-02-15T10:59:54;96140.19;;;12.62;43.30
12624;BME280;6377;42.836;23.998;2024-02-15T11:02:27;96113.75;;;12.69;42.86
12624;BME280;6377;42.836;23.998;2024-02-15T11:05:01;96038.16;;;12.50;41.94
12624;BME280;6377;42.836;23.998;2024-02-15T11:07:31;96093.78;;;13.25;41.25
12624;BME280;6377;42.836;23.998;2024-02-15T11:09:58;95958.09;;;12.76;41.02
12624;BME280;6377;42.836;23.998;2024-02-15T11:12:28;95992.50;;;12.99;41.62
12624;BME280;6377;42.836;23.998;2024-02-15T11:14:56;96149.81;;;13.30;42.17
12624;BME280;6377;42.836;23.998;2024-02-15T11:17:46;96149.81;;;13.44;42.41
12624;BME280;6377;42.836;23.998;2024-02-15T11:20:48;96139.72;;;14.05;41.16
12624;BME280;6377;42.836;23.998;2024-02-15T11:23:26;95960.22;;;13.31;40.59
12624;BME280;6377;42.836;23.998;2024-02-15T11:25:54;96109.59;;;14.62;39.95
12624;BME280;6377;42.836;23.998;2024-02-15T11:28:39;96001.13;;;14.21;39.11
12624;BME280;6377;42.836;23.998;2024-02-15T11:31:10;95924.25;;;13.98;39.18
12624;BME280;6377;42.836;23.998;2024-02-15T11:33:39;96064.16;;;14.91;38.57
12624;BME280;6377;42.836;23.998;2024-02-15T11:36:07;96011.13;;;14.62;39.03
12624;BME280;6377;42.836;23.998;2024-02-15T11:38:36;96122.34;;;15.62;38.12
12624;BME280;6377;42.836;23.998;2024-02-15T11:41:07;95942.50;;;14.64;37.65
12624;BME280;6377;42.836;23.998;2024-02-15T11:43:51;96121.91;;;15.25;38.08
12624;BME280;6377;42.836;23.998;2024-02-15T11:46:24;96123.47;;;14.15;40.23
12624;BME280;6377;42.836;23.998;2024-02-15T11:48:56;95943.91;;;12.54;40.63
12624;BME280;6377;42.836;23.998;2024-02-15T11:51:29;96127.69;;;13.08;41.71
12624;BME280;6377;42.836;23.998;2024-02-15T11:54:06;95898.66;;;11.37;42.61
12624;BME280;6377;42.836;23.998;2024-02-15T11:56:56;96016.25;;;11.51;43.96
12624;BME280;6377;42.836;23.998;2024-02-15T11:59:40;95962.00;;;11.16;43.87
12624;BME280;6377;42.836;23.998;2024-02-15T12:02:25;95992.47;;;11.65;43.57
12624;BME280;6377;42.836;23.998;2024-02-15T12:05:11;96074.75;;;12.55;42.65
12624;BME280;6377;42.836;23.998;2024-02-15T12:07:56;95908.09;;;11.54;41.81
12624;BME280;6377;42.836;23.998;2024-02-15T12:10:40;96117.72;;;13.75;41.42
12624;BME280;6377;42.836;23.998;2024-02-15T12:13:25;96119.34;;;13.91;40.50
12624;BME280;6377;42.836;23.998;2024-02-15T12:16:15;96132.41;;;13.57;41.39
12624;BME280;6377;42.836;23.998;2024-02-15T12:19:00;95984.25;;;12.93;41.34
12624;BME280;6377;42.836;23.998;2024-02-15T12:21:29;95937.63;;;12.26;41.84
12624;BME280;6377;42.836;23.998;2024-02-15T12:23:56;96101.63;;;13.33;41.72
12624;BME280;6377;42.836;23.998;2024-02-15T12:26:24;95959.28;;;11.77;41.95
12624;BME280;6377;42.836;23.998;2024-02-15T12:28:53;96116.78;;;12.66;42.97
12624;BME280;6377;42.836;23.998;2024-02-15T12:31:24;96110.97;;;12.48;43.44
12624;BME280;6377;42.836;23.998;2024-02-15T12:34:02;96122.25;;;11.82;43.83
12624;BME280;6377;42.836;23.998;2024-02-15T12:36:32;96119.63;;;11.65;44.53
12624;BME280;6377;42.836;23.998;2024-02-15T12:39:00;96093.59;;;11.46;44.41
12624;BME280;6377;42.836;23.998;2024-02-15T12:41:27;96114.47;;;11.41;45.49
12624;BME280;6377;42.836;23.998;2024-02-15T12:43:56;95986.31;;;10.50;45.05
12624;BME280;6377;42.836;23.998;2024-02-15T12:46:25;95955.63;;;10.25;46.56
12624;BME280;6377;42.836;23.998;2024-02-15T12:49:07;95928.16;;;10.34;46.12
12624;BME280;6377;42.836;23.998;2024-02-15T12:51:39;96051.13;;;11.32;46.12
12624;BME280;6377;42.836;23.998;2024-02-15T12:54:10;95900.56;;;9.41;44.97
12624;BME280;6377;42.836;23.998;2024-02-15T12:56:42;96031.63;;;10.23;47.51
12624;BME280;6377;42.836;23.998;2024-02-15T12:59:09;95998.59;;;9.78;47.78
12624;BME280;6377;42.836;23.998;2024-02-15T13:09:23;96049.31;;;10.22;49.03
12624;BME280;6377;42.836;23.998;2024-02-15T13:11:50;96116.53;;;10.60;47.89
12624;BME280;6377;42.836;23.998;2024-02-15T13:14:19;96119.53;;;10.33;47.55
12624;BME280;6377;42.836;23.998;2024-02-15T13:16:46;96112.25;;;10.35;48.79
12624;BME280;6377;42.836;23.998;2024-02-15T13:19:14;96107.97;;;10.26;47.57
12624;BME280;6377;42.836;23.998;2024-02-15T13:21:41;96110.41;;;10.03;49.46
12624;BME280;6377;42.836;23.998;2024-02-15T13:24:08;95954.47;;;8.98;49.98
12624;BME280;6377;42.836;23.998;2024-02-15T13:26:38;95994.09;;;9.22;50.05
12624;BME280;6377;42.836;23.998;2024-02-15T13:29:05;95916.13;;;8.62;49.90
12624;BME280;6377;42.836;23.998;2024-02-15T13:31:32;96110.88;;;9.74;50.04
12624;BME280;6377;42.836;23.998;2024-02-15T13:34:00;96055.50;;;9.40;49.88
12624;BME280;6377;42.836;23.998;2024-02-15T13:36:27;96096.97;;;9.56;49.65
12624;BME280;6377;42.836;23.998;2024-02-15T13:38:56;96074.81;;;9.33;49.79
12624;BME280;6377;42.836;23.998;2024-02-15T13:41:23;96032.81;;;9.06;50.27
12624;BME280;6377;42.836;23.998;2024-02-15T13:43:51;96104.19;;;9.46;50.28
12624;BME280;6377;42.836;23.998;2024-02-15T13:46:20;96005.81;;;8.70;50.39
12624;BME280;6377;42.836;23.998;2024-02-15T13:48:47;95985.34;;;8.64;51.35
12624;BME280;6377;42.836;23.998;2024-02-15T13:51:14;96110.81;;;9.58;50.84
12624;BME280;6377;42.836;23.998;2024-02-15T13:53:41;96109.84;;;9.67;50.67
12624;BME280;6377;42.836;23.998;2024-02-15T13:56:08;96109.72;;;9.85;50.86
12624;BME280;6377;42.836;23.998;2024-02-15T13:58:36;96110.06;;;9.90;50.02
12624;BME280;6377;42.836;23.998;2024-02-15T14:01:04;96111.03;;;9.81;50.05
12624;BME280;6377;42.836;23.998;2024-02-15T14:08:42;95930.28;;;8.61;50.13
12624;BME280;6377;42.836;23.998;2024-02-15T14:11:09;96120.94;;;9.79;50.59
12624;BME280;6377;42.836;23.998;2024-02-15T14:13:37;96111.03;;;9.81;50.51
12624;BME280;6377;42.836;23.998;2024-02-15T14:16:06;96045.44;;;9.44;50.46
12624;BME280;6377;42.836;23.998;2024-02-15T14:18:34;95922.03;;;8.56;49.88
12624;BME280;6377;42.836;23.998;2024-02-15T14:21:01;95900.47;;;8.60;49.97
12624;BME280;6377;42.836;23.998;2024-02-15T14:23:29;96085.63;;;9.88;50.06
12624;BME280;6377;42.836;23.998;2024-02-15T14:25:56;96102.47;;;10.11;49.65
12624;BME280;6377;42.836;23.998;2024-02-15T14:28:26;96014.09;;;9.49;49.06
12624;BME280;6377;42.836;23.998;2024-02-15T14:30:53;96087.13;;;10.06;48.99
12624;BME280;6377;42.836;23.998;2024-02-15T14:33:39;95888.59;;;8.56;49.48
12624;BME280;6377;42.836;23.998;2024-02-15T14:36:07;96002.06;;;9.38;48.87
12624;BME280;6377;42.836;23.998;2024-02-15T14:38:34;96078.69;;;9.71;50.17
12624;BME280;6377;42.836;23.998;2024-02-15T14:41:01;96014.41;;;9.38;50.01
12624;BME280;6377;42.836;23.998;2024-02-15T14:43:31;96114.50;;;9.89;50.23
12624;BME280;6377;42.836;23.998;2024-02-15T14:45:59;96117.31;;;9.88;50.19
12624;BME280;6377;42.836;23.998;2024-02-15T14:48:29;96111.06;;;9.89;50.52
12624;BME280;6377;42.836;23.998;2024-02-15T14:50:58;96104.63;;;9.83;50.63
12624;BME280;6377;42.836;23.998;2024-02-15T14:53:26;96113.34;;;9.76;49.96
12624;BME280;6377;42.836;23.998;2024-02-15T14:55:53;96122.91;;;9.69;50.28
12624;BME280;6377;42.836;23.998;2024-02-15T14:58:21;96074.81;;;9.41;50.77
12624;BME280;6377;42.836;23.998;2024-02-15T15:00:48;96110.19;;;9.72;50.81
12624;BME280;6377;42.836;23.998;2024-02-15T15:03:16;96098.31;;;9.68;50.92
12624;BME280;6377;42.836;23.998;2024-02-15T15:05:43;96114.16;;;9.76;51.11
12624;BME280;6377;42.836;23.998;2024-02-15T15:08:29;96107.22;;;9.67;50.50
12624;BME280;6377;42.836;23.998;2024-02-15T15:11:13;96110.38;;;9.71;51.37
12624;BME280;6377;42.836;23.998;2024-02-15T15:13:58;96098.66;;;9.65;51.24
12624;BME280;6377;42.836;23.998;2024-02-15T15:16:25;96080.94;;;9.57;51.42
12624;BME280;6377;42.836;23.998;2024-02-15T15:18:53;96115.47;;;9.72;51.40
12624;BME280;6377;42.836;23.998;2024-02-15T15:21:20;96113.34;;;9.76;51.81
12624;BME280;6377;42.836;23.998;2024-02-15T15:23:50;96091.69;;;9.48;52.31
12624;BME280;6377;42.836;23.998;2024-02-15T15:26:19;96068.66;;;9.24;52.75
12624;BME280;6377;42.836;23.998;2024-02-15T15:28:46;96116.25;;;9.48;53.11
12624;BME280;6377;42.836;23.998;2024-02-15T15:31:14;96119.84;;;9.39;52.98
12624;BME280;6377;42.836;23.998;2024-02-15T15:33:41;96101.63;;;9.20;54.16
12624;BME280;6377;42.836;23.998;2024-02-15T15:36:09;96131.00;;;9.25;55.41
12624;BME280;6377;42.836;23.998;2024-02-15T15:38:36;95981.97;;;8.20;55.38
12624;BME280;6377;42.836;23.998;2024-02-15T15:41:06;96006.13;;;8.33;56.58
12624;BME280;6377;42.836;23.998;2024-02-15T15:43:34;96128.31;;;9.09;57.42
12624;BME280;6377;42.836;23.998;2024-02-15T15:46:02;95994.63;;;8.16;57.95
12624;BME280;6377;42.836;23.998;2024-02-15T15:48:29;96134.94;;;8.87;57.92
12624;BME280;6377;42.836;23.998;2024-02-15T15:50:58;96135.78;;;8.88;58.42
12624;BME280;6377;42.836;23.998;2024-02-15T15:53:26;96134.44;;;8.84;58.81
12624;BME280;6377;42.836;23.998;2024-02-15T15:55:53;96140.53;;;8.84;58.97
12624;BME280;6377;42.836;23.998;2024-02-15T15:58:21;96154.56;;;8.85;59.36
12624;BME280;6377;42.836;23.998;2024-02-15T16:00:49;96116.50;;;8.62;59.54
12624;BME280;6377;42.836;23.998;2024-02-15T16:03:16;96158.16;;;8.84;60.49
12624;BME280;6377;42.836;23.998;2024-02-15T16:05:48;96158.03;;;8.85;59.76
12624;BME280;6377;42.836;23.998;2024-02-15T16:08:15;96159.16;;;8.83;60.46
12624;BME280;6377;42.836;23.998;2024-02-15T16:10:42;96159.63;;;8.78;60.94
12624;BME280;6377;42.836;23.998;2024-02-15T16:13:11;96115.91;;;8.42;61.65
12624;BME280;6377;42.836;23.998;2024-02-15T16:15:40;96067.81;;;8.05;61.42
12624;BME280;6377;42.836;23.998;2024-02-15T16:18:11;96173.06;;;8.67;62.52
12624;BME280;6377;42.836;23.998;2024-02-15T16:20:39;96177.81;;;8.64;63.06
12624;BME280;6377;42.836;23.998;2024-02-15T16:23:07;96177.59;;;8.57;63.46
12624;BME280;6377;42.836;23.998;2024-02-15T16:28:09;96101.03;;;7.98;67.23
12624;BME280;6377;42.836;23.998;2024-02-15T16:30:36;96051.00;;;7.62;66.45
12624;BME280;6377;42.836;23.998;2024-02-15T16:33:05;96098.69;;;7.59;69.10
12624;BME280;6377;42.836;23.998;2024-02-15T16:35:32;96053.69;;;7.35;71.56
12624;BME280;6377;42.836;23.998;2024-02-15T16:38:01;96162.94;;;7.84;71.95
12624;BME280;6377;42.836;23.998;2024-02-15T16:40:30;96215.94;;;8.16;71.54
12624;BME280;6377;42.836;23.998;2024-02-15T16:43:11;96109.19;;;7.42;73.48
12624;BME280;6377;42.836;23.998;2024-02-15T16:45:39;96093.72;;;7.39;73.70
12624;BME280;6377;42.836;23.998;2024-02-15T16:48:08;96134.13;;;7.65;73.04
12624;BME280;6377;42.836;23.998;2024-02-15T16:50:37;96141.34;;;7.63;72.64
12624;BME280;6377;42.836;23.998;2024-02-15T16:53:06;96175.13;;;7.85;72.26
12624;BME280;6377;42.836;23.998;2024-02-15T16:55:35;96177.47;;;7.88;73.29
12624;BME280;6377;42.836;23.998;2024-02-15T16:58:02;96182.44;;;7.91;73.10
12624;BME280;6377;42.836;23.998;2024-02-15T17:00:33;96184.53;;;7.87;72.37
12624;BME280;6377;42.836;23.998;2024-02-15T17:03:01;96187.16;;;7.87;72.50
12624;BME280;6377;42.836;23.998;2024-02-15T17:05:29;96192.19;;;7.81;74.16
12624;BME280;6377;42.836;23.998;2024-02-15T17:07:57;96235.91;;;8.01;76.12
12624;BME280;6377;42.836;23.998;2024-02-15T17:10:25;96226.00;;;7.85;77.16
12624;BME280;6377;42.836;23.998;2024-02-15T17:12:54;96187.56;;;7.48;77.53
12624;BME280;6377;42.836;23.998;2024-02-15T17:15:21;96205.69;;;7.51;78.67
12624;BME280;6377;42.836;23.998;2024-02-15T17:17:52;96193.53;;;7.40;79.57
12624;BME280;6377;42.836;23.998;2024-02-15T17:20:20;96242.63;;;7.59;80.71
12624;BME280;6377;42.836;23.998;2024-02-15T17:25:25;96174.22;;;6.95;84.23
12624;BME280;6377;42.836;23.998;2024-02-15T17:27:53;96238.78;;;7.16;85.33
12624;BME280;6377;42.836;23.998;2024-02-15T17:30:21;96147.41;;;6.35;87.49
12624;BME280;6377;42.836;23.998;2024-02-15T17:32:49;96243.16;;;6.98;88.76
12624;BME280;6377;42.836;23.998;2024-02-15T17:35:17;96217.78;;;6.41;88.76
12624;BME280;6377;42.836;23.998;2024-02-15T17:45:40;96069.22;;;5.72;89.98
12624;BME280;6377;42.836;23.998;2024-02-15T17:48:07;96287.31;;;6.95;91.23
12624;BME280;6377;42.836;23.998;2024-02-15T17:50:35;96253.53;;;6.90;92.37
12624;BME280;6377;42.836;23.998;2024-02-15T17:53:02;96106.66;;;5.74;96.09
12624;BME280;6377;42.836;23.998;2024-02-15T17:55:29;96258.16;;;6.69;96.68
12624;BME280;6377;42.836;23.998;2024-02-15T17:57:57;96251.94;;;6.51;98.77
12624;BME280;6377;42.836;23.998;2024-02-15T18:00:24;96256.47;;;6.58;99.24
12624;BME280;6377;42.836;23.998;2024-02-15T18:02:56;96194.44;;;6.19;99.82
12624;BME280;6377;42.836;23.998;2024-02-15T18:05:24;96209.31;;;5.80;100.00
12624;BME280;6377;42.836;23.998;2024-02-15T18:08:24;96064.47;;;4.59;100.00
12624;BME280;6377;42.836;23.998;2024-02-15T18:24:12;96267.59;;;5.74;100.00
12624;BME280;6377;42.836;23.998;2024-02-15T18:34:26;96129.75;;;4.71;100.00
12624;BME280;6377;42.836;23.998;2024-02-15T18:36:53;96003.66;;;3.64;100.00
12624;BME280;6377;42.836;23.998;2024-02-15T18:39:22;96081.66;;;4.21;100.00
12624;BME280;6377;42.836;23.998;2024-02-15T18:41:50;96233.81;;;5.11;100.00
12624;BME280;6377;42.836;23.998;2024-02-15T18:44:18;96289.28;;;5.36;100.00
12624;BME280;6377;42.836;23.998;2024-02-15T18:46:45;96165.97;;;4.36;100.00
12624;BME280;6377;42.836;23.998;2024-02-15T18:49:14;96117.47;;;3.79;100.00
12624;BME280;6377;42.836;23.998;2024-02-15T18:51:41;96095.56;;;3.60;100.00
12624;BME280;6377;42.836;23.998;2024-02-15T18:54:08;96220.13;;;4.35;100.00
12624;BME280;6377;42.836;23.998;2024-02-15T18:56:37;96117.09;;;3.63;100.00
12624;BME280;6377;42.836;23.998;2024-02-15T18:59:16;96063.25;;;3.29;100.00
12624;BME280;6377;42.836;23.998;2024-02-15T19:04:18;96134.31;;;3.66;100.00
12624;BME280;6377;42.836;23.998;2024-02-15T19:06:46;96126.75;;;3.52;100.00
12624;BME280;6377;42.836;23.998;2024-02-15T19:09:13;96311.72;;;4.46;100.00
